sensor_id;sensor_type;location;lat;lon;timestamp;pressure;altitude;pressure_sealevel;temperature;humidity
35551;BME280;21655;46.056;13.616;2023-04-15T00:00:42;99395.25;;;9.27;100.00
35551;BME280;21655;46.056;13.616;2023-04-15T00:03:07;99402.25;;;9.23;100.00
35551;BME280;21655;46.056;13.616;2023-04-15T00:05:33;99401.09;;;9.18;100.00
35551;BME280;21655;46.056;13.616;2023-04-15T00:07:59;99390.34;;;9.23;100.00
35551;BME280;21655;46.056;13.616;2023-04-15T00:10:26;99401.84;;;9.26;100.00
35551;BME280;21655;46.056;13.616;2023-04-15T00:12:52;99388.22;;;9.25;100.00
35551;BME280;21655;46.056;13.616;2023-04-15T00:15:18;99395.19;;;9.21;100.00
35551;BME280;21655;46.056;13.616;2023-04-15T00:17:43;99386.88;;;9.21;100.00
35551;BME280;21655;46.056;13.616;2023-04-15T00:20:09;99389.06;;;9.25;100.00
35551;BME280;21655;46.056;13.616;2023-04-15T00:22:35;99386.19;;;9.33;100.00
35551;BME280;21655;46.056;13.616;2023-04-15T00:25:00;99389.03;;;9.39;100.00
35551;BME280;21655;46.056;13.616;2023-04-15T00:27:26;99386.56;;;9.30;100.00
35551;BME280;21655;46.056;13.616;2023-04-15T00:29:52;99385.09;;;9.13;100.00
35551;BME280;21655;46.056;13.616;2023-04-15T00:32:17;99383.00;;;9.15;100.00
35551;BME280;21655;46.056;13.616;2023-04-15T00:34:42;99386.16;;;9.12;100.00
35551;BME280;21655;46.056;13.616;2023-04-15T00:37:08;99384.91;;;9.15;100.00
35551;BME280;21655;46.056;13.616;2023-04-15T00:39:34;99394.06;;;9.15;100.00
35551;BME280;21655;46.056;13.616;2023-04-15T00:42:01;99396.38;;;9.12;100.00
35551;BME280;21655;46.056;13.616;2023-04-15T00:44:27;99386.81;;;9.14;100.00
35551;BME280;21655;46.056;13.616;2023-04-15T00:46:53;99389.13;;;9.11;100.00
35551;BME280;21655;46.056;13.616;2023-04-15T00:49:19;99386.16;;;9.12;100.00
35551;BME280;21655;46.056;13.616;2023-04-15T00:51:44;99385.09;;;9.13;100.00
35551;BME280;21655;46.056;13.616;2023-04-15T00:54:10;99379.78;;;9.12;100.00
35551;BME280;21655;46.056;13.616;2023-04-15T00:56:37;99381.50;;;9.13;100.00
35551;BME280;21655;46.056;13.616;2023-04-15T00:59:04;99377.28;;;9.17;100.00
35551;BME280;21655;46.056;13.616;2023-04-15T01:01:33;99380.03;;;9.17;100.00
35551;BME280;21655;46.056;13.616;2023-04-15T01:03:59;99378.31;;;9.16;100.00
35551;BME280;21655;46.056;13.616;2023-04-15T01:06:25;99379.28;;;9.23;100.00
35551;BME280;21655;46.056;13.616;2023-04-15T01:08:52;99380.28;;;9.22;100.00
35551;BME280;21655;46.056;13.616;2023-04-15T01:11:18;99379.94;;;9.25;100.00
35551;BME280;21655;46.056;13.616;2023-04-15T01:13:45;99372.88;;;9.22;100.00
35551;BME280;21655;46.056;13.616;2023-04-15T01:16:10;99372.69;;;9.24;100.00
35551;BME280;21655;46.056;13.616;2023-04-15T01:18:37;99381.31;;;9.35;100.00
35551;BME280;21655;46.056;13.616;2023-04-15T01:21:04;99380.84;;;9.31;100.00
35551;BME280;21655;46.056;13.616;2023-04-15T01:23:30;99377.41;;;9.29;100.00
35551;BME280;21655;46.056;13.616;2023-04-15T01:25:56;99383.44;;;9.33;100.00
35551;BME280;21655;46.056;13.616;2023-04-15T01:28:23;99368.00;;;9.24;100.00
35551;BME280;21655;46.056;13.616;2023-04-15T01:30:49;99372.41;;;9.19;100.00
35551;BME280;21655;46.056;13.616;2023-04-15T01:33:15;99367.19;;;9.30;100.00
35551;BME280;21655;46.056;13.616;2023-04-15T01:35:41;99364.84;;;9.27;100.00
35551;BME280;21655;46.056;13.616;2023-04-15T01:38:09;99370.97;;;9.23;100.00
35551;BME280;21655;46.056;13.616;2023-04-15T01:40:35;99359.84;;;9.16;100.00
35551;BME280;21655;46.056;13.616;2023-04-15T01:43:01;99365.47;;;9.29;100.00
35551;BME280;21655;46.056;13.616;2023-04-15T01:45:28;99368.56;;;9.20;100.00
35551;BME280;21655;46.056;13.616;2023-04-15T01:47:54;99366.47;;;9.22;100.00
35551;BME280;21655;46.056;13.616;2023-04-15T01:50:19;99362.28;;;9.26;100.00
35551;BME280;21655;46.056;13.616;2023-04-15T01:52:46;99370.19;;;9.28;100.00
35551;BME280;21655;46.056;13.616;2023-04-15T01:55:12;99366.09;;;9.25;100.00
35551;BME280;21655;46.056;13.616;2023-04-15T01:57:38;99365.16;;;9.18;100.00
35551;BME280;21655;46.056;13.616;2023-04-15T02:00:04;99366.47;;;9.22;100.00
35551;BME280;21655;46.056;13.616;2023-04-15T02:02:32;99364.00;;;9.27;100.00
35551;BME280;21655;46.056;13.616;2023-04-15T02:04:57;99364.75;;;9.21;100.00
35551;BME280;21655;46.056;13.616;2023-04-15T02:07:23;99369.75;;;9.11;100.00
35551;BME280;21655;46.056;13.616;2023-04-15T02:09:48;99370.44;;;9.13;100.00
35551;BME280;21655;46.056;13.616;2023-04-15T02:12:14;99376.63;;;9.15;100.00
35551;BME280;21655;46.056;13.616;2023-04-15T02:14:39;99365.16;;;9.18;100.00
35551;BME280;21655;46.056;13.616;2023-04-15T02:17:05;99364.38;;;9.24;100.00
35551;BME280;21655;46.056;13.616;2023-04-15T02:19:33;99356.28;;;9.22;100.00
35551;BME280;21655;46.056;13.616;2023-04-15T02:21:59;99349.22;;;9.20;100.00
35551;BME280;21655;46.056;13.616;2023-04-15T02:24:26;99346.25;;;9.21;100.00
35551;BME280;21655;46.056;13.616;2023-04-15T02:26:52;99360.34;;;9.26;100.00
35551;BME280;21655;46.056;13.616;2023-04-15T02:29:17;99348.63;;;9.24;100.00
35551;BME280;21655;46.056;13.616;2023-04-15T02:31:42;99353.59;;;9.28;100.00
35551;BME280;21655;46.056;13.616;2023-04-15T02:34:09;99348.63;;;9.24;100.00
35551;BME280;21655;46.056;13.616;2023-04-15T02:36:34;99341.88;;;9.27;100.00
35551;BME280;21655;46.056;13.616;2023-04-15T02:39:00;99346.34;;;9.27;100.00
35551;BME280;21655;46.056;13.616;2023-04-15T02:41:26;99345.44;;;9.41;100.00
35551;BME280;21655;46.056;13.616;2023-04-15T02:43:53;99349.50;;;9.45;100.00
35551;BME280;21655;46.056;13.616;2023-04-15T02:46:18;99344.81;;;9.25;100.00
35551;BME280;21655;46.056;13.616;2023-04-15T02:48:46;99347.00;;;9.29;100.00
35551;BME280;21655;46.056;13.616;2023-04-15T02:51:15;99339.75;;;9.28;100.00
35551;BME280;21655;46.056;13.616;2023-04-15T02:53:41;99339.69;;;9.22;100.00
35551;BME280;21655;46.056;13.616;2023-04-15T02:56:07;99346.78;;;9.10;100.00
35551;BME280;21655;46.056;13.616;2023-04-15T02:58:34;99344.97;;;9.03;100.00
35551;BME280;21655;46.056;13.616;2023-04-15T03:01:00;99346.50;;;9.05;100.00
35551;BME280;21655;46.056;13.616;2023-04-15T03:03:26;99339.88;;;9.21;100.00
35551;BME280;21655;46.056;13.616;2023-04-15T03:05:55;99338.78;;;9.15;100.00
35551;BME280;21655;46.056;13.616;2023-04-15T03:08:20;99337.03;;;9.14;100.00
35551;BME280;21655;46.056;13.616;2023-04-15T03:10:46;99341.72;;;9.14;100.00
35551;BME280;21655;46.056;13.616;2023-04-15T03:13:12;99338.28;;;9.12;100.00
35551;BME280;21655;46.056;13.616;2023-04-15T03:15:37;99338.81;;;9.22;100.00
35551;BME280;21655;46.056;13.616;2023-04-15T03:18:03;99333.25;;;9.15;100.00
35551;BME280;21655;46.056;13.616;2023-04-15T03:20:28;99335.03;;;9.23;100.00
35551;BME280;21655;46.056;13.616;2023-04-15T03:22:53;99344.97;;;9.17;100.00
35551;BME280;21655;46.056;13.616;2023-04-15T03:25:19;99342.91;;;9.26;100.00
35551;BME280;21655;46.056;13.616;2023-04-15T03:27:44;99345.69;;;9.26;100.00
35551;BME280;21655;46.056;13.616;2023-04-15T03:30:10;99344.56;;;9.20;100.00
35551;BME280;21655;46.056;13.616;2023-04-15T03:32:38;99343.97;;;9.25;100.00
35551;BME280;21655;46.056;13.616;2023-04-15T03:35:04;99357.06;;;9.16;100.00
35551;BME280;21655;46.056;13.616;2023-04-15T03:37:30;99353.63;;;9.14;100.00
35551;BME280;21655;46.056;13.616;2023-04-15T03:39:56;99344.97;;;9.17;100.00
35551;BME280;21655;46.056;13.616;2023-04-15T03:42:21;99346.66;;;9.18;100.00
35551;BME280;21655;46.056;13.616;2023-04-15T03:44:47;99347.97;;;9.22;100.00
35551;BME280;21655;46.056;13.616;2023-04-15T03:47:12;99353.75;;;9.27;100.00
35551;BME280;21655;46.056;13.616;2023-04-15T03:49:37;99348.63;;;9.24;100.00
35551;BME280;21655;46.056;13.616;2023-04-15T03:52:03;99345.41;;;9.21;100.00
35551;BME280;21655;46.056;13.616;2023-04-15T03:54:29;99348.44;;;9.26;100.00
35551;BME280;21655;46.056;13.616;2023-04-15T03:56:54;99347.00;;;9.29;100.00
35551;BME280;21655;46.056;13.616;2023-04-15T03:59:20;99348.84;;;9.23;100.00
35551;BME280;21655;46.056;13.616;2023-04-15T04:01:46;99351.91;;;9.13;100.00
35551;BME280;21655;46.056;13.616;2023-04-15T04:04:11;99358.31;;;9.14;100.00
35551;BME280;21655;46.056;13.616;2023-04-15T04:06:37;99351.91;;;9.13;100.00
35551;BME280;21655;46.056;13.616;2023-04-15T04:09:02;99347.81;;;9.09;100.00
35551;BME280;21655;46.056;13.616;2023-04-15T04:11:28;99351.47;;;9.10;100.00
35551;BME280;21655;46.056;13.616;2023-04-15T04:13:53;99349.75;;;9.09;100.00
35551;BME280;21655;46.056;13.616;2023-04-15T04:16:19;99348.31;;;9.13;100.00
35551;BME280;21655;46.056;13.616;2023-04-15T04:18:44;99354.88;;;9.12;100.00
35551;BME280;21655;46.056;13.616;2023-04-15T04:21:10;99344.31;;;9.15;100.00
35551;BME280;21655;46.056;13.616;2023-04-15T04:23:35;99357.91;;;9.17;100.00
35551;BME280;21655;46.056;13.616;2023-04-15T04:26:01;99353.44;;;9.16;100.00
35551;BME280;21655;46.056;13.616;2023-04-15T04:28:26;99361.91;;;9.14;100.00
35551;BME280;21655;46.056;13.616;2023-04-15T04:30:52;99357.06;;;9.16;100.00
35551;BME280;21655;46.056;13.616;2023-04-15T04:33:18;99356.38;;;9.14;100.00
35551;BME280;21655;46.056;13.616;2023-04-15T04:35:43;99363.59;;;9.29;100.00
35551;BME280;21655;46.056;13.616;2023-04-15T04:38:09;99359.03;;;9.22;100.00
35551;BME280;21655;46.056;13.616;2023-04-15T04:40:34;99361.41;;;9.25;100.00
35551;BME280;21655;46.056;13.616;2023-04-15T04:43:00;99369.78;;;9.31;100.00
35551;BME280;21655;46.056;13.616;2023-04-15T04:45:25;99364.06;;;9.33;100.00
35551;BME280;21655;46.056;13.616;2023-04-15T04:47:51;99361.88;;;9.28;100.00
35551;BME280;21655;46.056;13.616;2023-04-15T04:50:16;99368.56;;;9.20;100.00
35551;BME280;21655;46.056;13.616;2023-04-15T04:52:42;99361.06;;;9.14;100.00
35551;BME280;21655;46.056;13.616;2023-04-15T04:55:08;99370.09;;;9.22;100.00
35551;BME280;21655;46.056;13.616;2023-04-15T04:57:33;99358.25;;;9.28;100.00
35551;BME280;21655;46.056;13.616;2023-04-15T05:00:04;99370.19;;;9.28;100.00
35551;BME280;21655;46.056;13.616;2023-04-15T05:02:30;99373.25;;;9.19;100.00
35551;BME280;21655;46.056;13.616;2023-04-15T05:04:56;99371.09;;;9.15;100.00
35551;BME280;21655;46.056;13.616;2023-04-15T05:07:22;99382.31;;;9.13;100.00
35551;BME280;21655;46.056;13.616;2023-04-15T05:09:47;99378.50;;;9.14;100.00
35551;BME280;21655;46.056;13.616;2023-04-15T05:12:13;99370.50;;;9.19;100.00
35551;BME280;21655;46.056;13.616;2023-04-15T05:14:42;99383.94;;;9.22;100.00
35551;BME280;21655;46.056;13.616;2023-04-15T05:17:07;99377.59;;;9.28;100.00
35551;BME280;21655;46.056;13.616;2023-04-15T05:19:33;99382.69;;;9.25;100.00
35551;BME280;21655;46.056;13.616;2023-04-15T05:21:59;99376.56;;;9.29;100.00
35551;BME280;21655;46.056;13.616;2023-04-15T05:24:25;99377.69;;;9.34;100.00
35551;BME280;21655;46.056;13.616;2023-04-15T05:26:50;99381.31;;;9.35;100.00
35551;BME280;21655;46.056;13.616;2023-04-15T05:29:16;99381.97;;;9.37;100.00
35551;BME280;21655;46.056;13.616;2023-04-15T05:31:41;99374.50;;;9.37;100.00
35551;BME280;21655;46.056;13.616;2023-04-15T05:34:07;99378.72;;;9.33;100.00
35551;BME280;21655;46.056;13.616;2023-04-15T05:36:33;99383.88;;;9.36;100.00
35551;BME280;21655;46.056;13.616;2023-04-15T05:38:58;99390.00;;;9.32;100.00
35551;BME280;21655;46.056;13.616;2023-04-15T05:41:24;99398.50;;;9.30;100.00
35551;BME280;21655;46.056;13.616;2023-04-15T05:43:49;99400.22;;;9.31;100.00
35551;BME280;21655;46.056;13.616;2023-04-15T05:46:15;99394.84;;;9.30;100.00
35551;BME280;21655;46.056;13.616;2023-04-15T05:48:40;99398.97;;;9.34;100.00
35551;BME280;21655;46.056;13.616;2023-04-15T05:51:06;99396.00;;;9.35;100.00
35551;BME280;21655;46.056;13.616;2023-04-15T05:53:31;99395.88;;;9.43;100.00
35551;BME280;21655;46.056;13.616;2023-04-15T05:55:56;99393.78;;;9.45;100.00
35551;BME280;21655;46.056;13.616;2023-04-15T05:58:22;99396.53;;;9.45;100.00
35551;BME280;21655;46.056;13.616;2023-04-15T06:00:48;99390.19;;;9.51;100.00
35551;BME280;21655;46.056;13.616;2023-04-15T06:03:13;99397.13;;;9.62;100.00
35551;BME280;21655;46.056;13.616;2023-04-15T06:05:38;99398.78;;;9.77;100.00
35551;BME280;21655;46.056;13.616;2023-04-15T06:08:05;99395.50;;;9.95;100.00
35551;BME280;21655;46.056;13.616;2023-04-15T06:10:30;99395.50;;;9.95;100.00
35551;BME280;21655;46.056;13.616;2023-04-15T06:13:01;99397.44;;;9.94;100.00
35551;BME280;21655;46.056;13.616;2023-04-15T06:15:26;99403.63;;;9.96;100.00
35551;BME280;21655;46.056;13.616;2023-04-15T06:17:52;99397.31;;;10.02;100.00
35551;BME280;21655;46.056;13.616;2023-04-15T06:20:17;99406.88;;;10.00;100.00
35551;BME280;21655;46.056;13.616;2023-04-15T06:22:43;99403.56;;;10.11;100.00
35551;BME280;21655;46.056;13.616;2023-04-15T06:25:08;99399.88;;;10.31;100.00
35551;BME280;21655;46.056;13.616;2023-04-15T06:27:34;99402.75;;;10.44;100.00
35551;BME280;21655;46.056;13.616;2023-04-15T06:29:59;99401.16;;;10.56;100.00
35551;BME280;21655;46.056;13.616;2023-04-15T06:32:25;99399.16;;;10.50;100.00
35551;BME280;21655;46.056;13.616;2023-04-15T06:34:50;99398.50;;;10.48;100.00
35551;BME280;21655;46.056;13.616;2023-04-15T06:37:16;99405.28;;;10.39;100.00
35551;BME280;21655;46.056;13.616;2023-04-15T06:39:41;99404.19;;;10.34;100.00
35551;BME280;21655;46.056;13.616;2023-04-15T06:42:09;99405.06;;;10.41;100.00
35551;BME280;21655;46.056;13.616;2023-04-15T06:44:35;99410.38;;;10.36;100.00
35551;BME280;21655;46.056;13.616;2023-04-15T06:47:01;99405.53;;;10.44;100.00
35551;BME280;21655;46.056;13.616;2023-04-15T06:49:27;99415.50;;;10.39;100.00
35551;BME280;21655;46.056;13.616;2023-04-15T06:51:52;99416.41;;;10.46;100.00
35551;BME280;21655;46.056;13.616;2023-04-15T06:54:18;99414.53;;;10.53;100.00
35551;BME280;21655;46.056;13.616;2023-04-15T06:56:43;99417.47;;;10.45;100.00
35551;BME280;21655;46.056;13.616;2023-04-15T06:59:09;99417.53;;;10.58;100.00
35551;BME280;21655;46.056;13.616;2023-04-15T07:01:34;99424.09;;;10.50;100.00
35551;BME280;21655;46.056;13.616;2023-04-15T07:04:00;99417.97;;;10.55;100.00
35551;BME280;21655;46.056;13.616;2023-04-15T07:06:26;99423.47;;;10.48;100.00
35551;BME280;21655;46.056;13.616;2023-04-15T07:08:52;99408.34;;;10.51;100.00
35551;BME280;21655;46.056;13.616;2023-04-15T07:11:18;99409.13;;;10.45;100.00
35551;BME280;21655;46.056;13.616;2023-04-15T07:13:45;99422.25;;;10.57;100.00
35551;BME280;21655;46.056;13.616;2023-04-15T07:16:10;99419.31;;;10.65;100.00
35551;BME280;21655;46.056;13.616;2023-04-15T07:18:36;99417.19;;;10.67;100.00
35551;BME280;21655;46.056;13.616;2023-04-15T07:21:01;99422.81;;;10.80;100.00
35551;BME280;21655;46.056;13.616;2023-04-15T07:23:27;99425.09;;;11.04;100.00
35551;BME280;21655;46.056;13.616;2023-04-15T07:25:52;99414.88;;;11.11;100.00
35551;BME280;21655;46.056;13.616;2023-04-15T07:28:18;99426.22;;;11.22;100.00
35551;BME280;21655;46.056;13.616;2023-04-15T07:30:43;99426.03;;;11.24;100.00
35551;BME280;21655;46.056;13.616;2023-04-15T07:33:08;99424.91;;;11.12;100.00
35551;BME280;21655;46.056;13.616;2023-04-15T07:35:34;99419.00;;;11.28;100.00
35551;BME280;21655;46.056;13.616;2023-04-15T07:37:59;99430.78;;;11.43;100.00
35551;BME280;21655;46.056;13.616;2023-04-15T07:40:25;99424.56;;;11.34;100.00
35551;BME280;21655;46.056;13.616;2023-04-15T07:42:50;99430.97;;;11.41;100.00
35551;BME280;21655;46.056;13.616;2023-04-15T07:45:16;99419.63;;;11.30;100.00
35551;BME280;21655;46.056;13.616;2023-04-15T07:47:42;99418.53;;;11.24;100.00
35551;BME280;21655;46.056;13.616;2023-04-15T07:50:08;99427.97;;;11.36;100.00
35551;BME280;21655;46.056;13.616;2023-04-15T07:52:35;99427.34;;;11.34;100.00
35551;BME280;21655;46.056;13.616;2023-04-15T07:55:06;99425.22;;;11.43;100.00
35551;BME280;21655;46.056;13.616;2023-04-15T07:57:35;99431.78;;;11.29;100.00
35551;BME280;21655;46.056;13.616;2023-04-15T08:00:01;99443.53;;;11.31;100.00
35551;BME280;21655;46.056;13.616;2023-04-15T08:02:28;99442.69;;;11.30;100.00
35551;BME280;21655;46.056;13.616;2023-04-15T08:04:53;99456.06;;;11.14;100.00
35551;BME280;21655;46.056;13.616;2023-04-15T08:07:19;99446.00;;;11.07;100.00
35551;BME280;21655;46.056;13.616;2023-04-15T08:09:44;99450.97;;;11.18;100.00
35551;BME280;21655;46.056;13.616;2023-04-15T08:12:10;99443.06;;;11.15;100.00
35551;BME280;21655;46.056;13.616;2023-04-15T08:14:38;99445.03;;;11.27;100.00
35551;BME280;21655;46.056;13.616;2023-04-15T08:17:04;99457.41;;;11.31;100.00
35551;BME280;21655;46.056;13.616;2023-04-15T08:19:29;99456.94;;;11.15;100.00
35551;BME280;21655;46.056;13.616;2023-04-15T08:21:55;99457.81;;;11.21;100.00
35551;BME280;21655;46.056;13.616;2023-04-15T08:24:22;99456.09;;;11.20;100.00
35551;BME280;21655;46.056;13.616;2023-04-15T08:26:48;99457.56;;;11.17;100.00
35551;BME280;21655;46.056;13.616;2023-04-15T08:29:13;99462.09;;;11.24;100.00
35551;BME280;21655;46.056;13.616;2023-04-15T08:31:39;99461.59;;;11.14;100.00
35551;BME280;21655;46.056;13.616;2023-04-15T08:34:04;99468.44;;;11.18;100.00
35551;BME280;21655;46.056;13.616;2023-04-15T08:36:30;99467.69;;;11.30;100.00
35551;BME280;21655;46.056;13.616;2023-04-15T08:38:56;99459.78;;;11.34;100.00
35551;BME280;21655;46.056;13.616;2023-04-15T08:41:24;99460.00;;;11.32;100.00
35551;BME280;21655;46.056;13.616;2023-04-15T08:43:56;99463.19;;;11.36;100.00
35551;BME280;21655;46.056;13.616;2023-04-15T08:46:22;99459.81;;;11.40;100.00
35551;BME280;21655;46.056;13.616;2023-04-15T08:48:48;99468.16;;;11.47;100.00
35551;BME280;21655;46.056;13.616;2023-04-15T08:51:16;99467.59;;;11.58;100.00
35551;BME280;21655;46.056;13.616;2023-04-15T08:53:45;99473.72;;;11.47;100.00
35551;BME280;21655;46.056;13.616;2023-04-15T08:56:13;99475.44;;;11.54;100.00
35551;BME280;21655;46.056;13.616;2023-04-15T08:58:40;99465.38;;;11.47;100.00
35551;BME280;21655;46.056;13.616;2023-04-15T09:01:05;99471.56;;;11.49;100.00
35551;BME280;21655;46.056;13.616;2023-04-15T09:03:31;99478.72;;;11.58;100.00
35551;BME280;21655;46.056;13.616;2023-04-15T09:05:58;99472.34;;;11.70;100.00
35551;BME280;21655;46.056;13.616;2023-04-15T09:08:23;99479.59;;;11.71;100.00
35551;BME280;21655;46.056;13.616;2023-04-15T09:10:49;99477.91;;;11.77;100.00
35551;BME280;21655;46.056;13.616;2023-04-15T09:13:15;99477.03;;;11.76;100.00
35551;BME280;21655;46.056;13.616;2023-04-15T09:15:41;99483.38;;;11.57;100.00
35551;BME280;21655;46.056;13.616;2023-04-15T09:18:07;99480.22;;;11.67;100.00
35551;BME280;21655;46.056;13.616;2023-04-15T09:20:39;99477.31;;;11.88;100.00
35551;BME280;21655;46.056;13.616;2023-04-15T09:23:13;99473.84;;;11.86;100.00
35551;BME280;21655;46.056;13.616;2023-04-15T09:25:39;99473.84;;;11.73;100.00
35551;BME280;21655;46.056;13.616;2023-04-15T09:28:07;99481.94;;;11.61;100.00
35551;BME280;21655;46.056;13.616;2023-04-15T09:30:33;99476.31;;;11.55;100.00
35551;BME280;21655;46.056;13.616;2023-04-15T09:33:01;99477.00;;;11.57;100.00
35551;BME280;21655;46.056;13.616;2023-04-15T09:35:27;99481.59;;;11.37;100.00
35551;BME280;21655;46.056;13.616;2023-04-15T09:38:01;99486.91;;;11.38;100.00
35551;BME280;21655;46.056;13.616;2023-04-15T09:40:34;99495.47;;;11.37;100.00
35551;BME280;21655;46.056;13.616;2023-04-15T09:43:01;99487.13;;;11.37;100.00
35551;BME280;21655;46.056;13.616;2023-04-15T09:45:28;99502.91;;;11.36;100.00
35551;BME280;21655;46.056;13.616;2023-04-15T09:47:53;99498.25;;;11.37;100.00
35551;BME280;21655;46.056;13.616;2023-04-15T09:50:19;99506.13;;;11.33;100.00
35551;BME280;21655;46.056;13.616;2023-04-15T09:52:45;99500.28;;;11.22;100.00
35551;BME280;21655;46.056;13.616;2023-04-15T09:55:12;99507.94;;;11.14;100.00
35551;BME280;21655;46.056;13.616;2023-04-15T09:57:38;99505.50;;;10.98;100.00
35551;BME280;21655;46.056;13.616;2023-04-15T10:00:07;99501.75;;;10.84;100.00
35551;BME280;21655;46.056;13.616;2023-04-15T10:02:36;99512.94;;;10.97;100.00
35551;BME280;21655;46.056;13.616;2023-04-15T10:05:02;99507.19;;;10.99;100.00
35551;BME280;21655;46.056;13.616;2023-04-15T10:07:28;99510.63;;;11.01;100.00
35551;BME280;21655;46.056;13.616;2023-04-15T10:09:54;99507.94;;;11.14;100.00
35551;BME280;21655;46.056;13.616;2023-04-15T10:12:21;99513.69;;;11.12;100.00
35551;BME280;21655;46.056;13.616;2023-04-15T10:15:00;99515.25;;;11.27;100.00
35551;BME280;21655;46.056;13.616;2023-04-15T10:17:29;99512.53;;;11.40;100.00
35551;BME280;21655;46.056;13.616;2023-04-15T10:20:00;99516.88;;;11.49;100.00
35551;BME280;21655;46.056;13.616;2023-04-15T10:22:27;99510.75;;;11.67;100.00
35551;BME280;21655;46.056;13.616;2023-04-15T10:24:54;99513.69;;;12.12;100.00
35551;BME280;21655;46.056;13.616;2023-04-15T10:27:20;99506.44;;;12.50;100.00
35551;BME280;21655;46.056;13.616;2023-04-15T10:29:48;99490.19;;;12.93;100.00
35551;BME280;21655;46.056;13.616;2023-04-15T10:32:14;99492.22;;;13.29;100.00
35551;BME280;21655;46.056;13.616;2023-04-15T10:34:41;99495.94;;;12.98;100.00
35551;BME280;21655;46.056;13.616;2023-04-15T10:37:08;99492.25;;;13.23;100.00
35551;BME280;21655;46.056;13.616;2023-04-15T10:42:19;99496.75;;;13.24;100.00
35551;BME280;21655;46.056;13.616;2023-04-15T10:44:49;99494.03;;;12.79;100.00
35551;BME280;21655;46.056;13.616;2023-04-15T10:47:19;99496.16;;;12.77;100.00
35551;BME280;21655;46.056;13.616;2023-04-15T10:49:50;99498.97;;;12.38;100.00
35551;BME280;21655;46.056;13.616;2023-04-15T10:52:22;99499.38;;;12.22;100.00
35551;BME280;21655;46.056;13.616;2023-04-15T10:54:48;99506.81;;;11.95;100.00
35551;BME280;21655;46.056;13.616;2023-04-15T10:57:22;99501.06;;;12.16;100.00
35551;BME280;21655;46.056;13.616;2023-04-15T11:02:37;99491.00;;;12.09;100.00
35551;BME280;21655;46.056;13.616;2023-04-15T11:05:04;99485.22;;;11.91;100.00
35551;BME280;21655;46.056;13.616;2023-04-15T11:12:46;99500.88;;;12.37;100.00
35551;BME280;21655;46.056;13.616;2023-04-15T11:18:24;99486.78;;;12.39;100.00
35551;BME280;21655;46.056;13.616;2023-04-15T11:20:52;99481.00;;;12.60;100.00
35551;BME280;21655;46.056;13.616;2023-04-15T11:23:31;99480.75;;;12.81;100.00
35551;BME280;21655;46.056;13.616;2023-04-15T11:25:58;99477.09;;;13.06;100.00
35551;BME280;21655;46.056;13.616;2023-04-15T11:28:28;99471.75;;;12.85;100.00
35551;BME280;21655;46.056;13.616;2023-04-15T11:30:55;99478.16;;;13.12;100.00
35551;BME280;21655;46.056;13.616;2023-04-15T11:33:22;99480.75;;;13.13;100.00
35551;BME280;21655;46.056;13.616;2023-04-15T11:35:48;99478.41;;;12.97;100.00
35551;BME280;21655;46.056;13.616;2023-04-15T11:38:15;99471.13;;;12.96;100.00
35551;BME280;21655;46.056;13.616;2023-04-15T11:40:41;99475.19;;;13.07;100.00
35551;BME280;21655;46.056;13.616;2023-04-15T11:43:15;99465.53;;;13.09;100.00
35551;BME280;21655;46.056;13.616;2023-04-15T11:45:52;99477.25;;;13.30;100.00
35551;BME280;21655;46.056;13.616;2023-04-15T11:48:18;99471.50;;;13.19;100.00
35551;BME280;21655;46.056;13.616;2023-04-15T11:50:44;99477.09;;;13.13;100.00
35551;BME280;21655;46.056;13.616;2023-04-15T11:53:12;99474.06;;;13.27;100.00
35551;BME280;21655;46.056;13.616;2023-04-15T11:55:47;99473.28;;;13.57;100.00
35551;BME280;21655;46.056;13.616;2023-04-15T11:58:24;99473.41;;;13.75;100.00
35551;BME280;21655;46.056;13.616;2023-04-15T12:00:55;99475.41;;;13.99;100.00
35551;BME280;21655;46.056;13.616;2023-04-15T12:06:11;99475.78;;;14.09;100.00
35551;BME280;21655;46.056;13.616;2023-04-15T12:11:49;99486.97;;;15.31;100.00
35551;BME280;21655;46.056;13.616;2023-04-15T12:14:18;99487.84;;;15.32;100.00
35551;BME280;21655;46.056;13.616;2023-04-15T12:16:48;99489.59;;;15.26;100.00
35551;BME280;21655;46.056;13.616;2023-04-15T12:19:19;99482.06;;;15.63;100.00
35551;BME280;21655;46.056;13.616;2023-04-15T12:21:47;99482.69;;;15.65;100.00
35551;BME280;21655;46.056;13.616;2023-04-15T12:24:12;99487.09;;;15.18;100.00
35551;BME280;21655;46.056;13.616;2023-04-15T12:26:47;99494.06;;;15.34;100.00
35551;BME280;21655;46.056;13.616;2023-04-15T12:29:14;99481.94;;;15.58;100.00
35551;BME280;21655;46.056;13.616;2023-04-15T12:31:47;99485.09;;;15.79;100.00
35551;BME280;21655;46.056;13.616;2023-04-15T12:34:14;99488.53;;;16.11;100.00
35551;BME280;21655;46.056;13.616;2023-04-15T12:36:40;99481.66;;;16.25;100.00
35551;BME280;21655;46.056;13.616;2023-04-15T12:39:06;99480.97;;;16.82;100.00
35551;BME280;21655;46.056;13.616;2023-04-15T12:41:32;99483.88;;;16.75;100.00
35551;BME280;21655;46.056;13.616;2023-04-15T12:43:58;99476.97;;;17.23;100.00
35551;BME280;21655;46.056;13.616;2023-04-15T12:46:24;99484.25;;;16.79;100.00
35551;BME280;21655;46.056;13.616;2023-04-15T12:48:50;99482.03;;;16.58;100.00
35551;BME280;21655;46.056;13.616;2023-04-15T12:51:19;99476.00;;;16.95;100.00
35551;BME280;21655;46.056;13.616;2023-04-15T12:53:48;99470.50;;;17.00;100.00
35551;BME280;21655;46.056;13.616;2023-04-15T12:56:15;99475.25;;;17.00;100.00
35551;BME280;21655;46.056;13.616;2023-04-15T12:58:44;99473.78;;;16.86;100.00
35551;BME280;21655;46.056;13.616;2023-04-15T13:01:09;99470.94;;;16.63;100.00